createdAt,value
2018-12-03T00:00:41.090Z,99585.33
2018-12-03T00:03:07.036Z,99588.28
2018-12-03T00:05:33.007Z,99584.01
2018-12-03T00:07:58.970Z,99596.70
2018-12-03T00:10:24.930Z,99587.46
2018-12-03T00:12:50.951Z,99590.41
2018-12-03T00:15:16.902Z,99598.52
2018-12-03T00:17:42.861Z,99585.49
2018-12-03T00:20:08.815Z,99587.31
2018-12-03T00:22:34.774Z,99592.91
2018-12-03T00:25:00.734Z,99586.81
2018-12-03T00:27:26.697Z,99583.36
2018-12-03T00:29:52.655Z,99590.93
2018-12-03T00:32:18.698Z,99594.41
2018-12-03T00:34:44.672Z,99594.58
2018-12-03T00:37:10.647Z,99595.89
2018-12-03T00:39:36.610Z,99594.58
2018-12-03T00:42:02.566Z,99597.52
2018-12-03T00:44:28.527Z,99596.40
2018-12-03T00:46:54.486Z,99593.76
2018-12-03T00:49:20.453Z,99588.65
2018-12-03T00:51:46.500Z,99601.84
2018-12-03T00:54:12.480Z,99599.36
2018-12-03T00:56:38.433Z,99597.57
2018-12-03T00:59:04.386Z,99602.84
2018-12-03T01:01:30.365Z,99602.34
2018-12-03T01:03:56.334Z,99601.84
2018-12-03T01:06:22.369Z,99603.01
2018-12-03T01:08:48.360Z,99613.40
2018-12-03T01:11:14.318Z,99609.60
2018-12-03T01:13:40.281Z,99616.03
2018-12-03T01:16:06.385Z,99610.42
2018-12-03T01:18:32.333Z,99614.06
2018-12-03T01:20:58.315Z,99615.38
2018-12-03T01:23:24.286Z,99620.16
2018-12-03T01:25:50.306Z,99623.61
2018-12-03T01:28:16.234Z,99632.34
2018-12-03T01:30:42.209Z,99639.94
2018-12-03T01:33:08.159Z,99640.75
2018-12-03T01:35:34.129Z,99648.67
2018-12-03T01:38:00.087Z,99649.48
2018-12-03T01:40:26.077Z,99646.22
2018-12-03T01:42:52.029Z,99649.33
2018-12-03T01:45:18.009Z,99648.37
2018-12-03T01:47:43.963Z,99641.11
2018-12-03T01:50:09.973Z,99649.33
2018-12-03T01:52:35.937Z,99647.70
2018-12-03T01:55:01.929Z,99639.48
2018-12-03T01:57:27.881Z,99640.80
2018-12-03T01:59:53.828Z,99635.52
2018-12-03T02:02:19.810Z,99636.64
2018-12-03T02:04:45.756Z,99631.88
2018-12-03T02:07:11.721Z,99631.37
2018-12-03T02:09:37.673Z,99617.68
2018-12-03T02:12:03.643Z,99616.86
2018-12-03T02:14:29.658Z,99603.36
2018-12-03T02:16:55.630Z,99599.41
2018-12-03T02:19:21.594Z,99595.09
2018-12-03T02:21:47.706Z,99583.06
2018-12-03T02:24:13.774Z,99582.87
2018-12-03T02:26:39.719Z,99570.52
2018-12-03T02:29:05.694Z,99564.41
2018-12-03T02:31:31.636Z,99565.25
2018-12-03T02:33:57.602Z,99565.87
2018-12-03T02:36:23.558Z,99566.87
2018-12-03T02:38:49.513Z,99578.24
2018-12-03T02:41:15.465Z,99576.27
2018-12-03T02:43:41.427Z,99574.48
2018-12-03T02:46:07.382Z,99578.09
2018-12-03T02:48:33.356Z,99573.63
2018-12-03T02:50:59.359Z,99570.83
2018-12-03T02:53:25.310Z,99568.20
2018-12-03T02:55:51.277Z,99571.65
2018-12-03T02:58:17.281Z,99571.34
2018-12-03T03:00:43.232Z,99570.52
2018-12-03T03:03:09.218Z,99579.25
2018-12-03T03:05:35.174Z,99582.70
2018-12-03T03:08:01.126Z,99577.94
2018-12-03T03:10:27.186Z,99576.77
2018-12-03T03:12:53.158Z,99580.72
2018-12-03T03:15:19.140Z,99586.30
2018-12-03T03:17:45.080Z,99577.72
2018-12-03T03:20:11.033Z,99576.72
2018-12-03T03:22:37.030Z,99584.97
2018-12-03T03:25:02.981Z,99569.64
2018-12-03T03:27:28.927Z,99548.03
2018-12-03T03:29:54.874Z,99541.44
2018-12-03T03:32:20.852Z,99537.28
2018-12-03T03:34:46.870Z,99516.02
2018-12-03T03:37:12.823Z,99509.75
2018-12-03T03:39:38.781Z,99516.16
2018-12-03T03:42:04.724Z,99511.22
2018-12-03T03:44:30.774Z,99510.38
2018-12-03T03:46:56.754Z,99515.98
2018-12-03T03:49:22.735Z,99519.61
2018-12-03T03:51:48.701Z,99533.64
2018-12-03T03:54:14.666Z,99538.08
2018-12-03T03:56:40.611Z,99541.05
2018-12-03T03:59:06.570Z,99549.79
2018-12-03T04:01:32.595Z,99545.69
2018-12-03T04:03:58.554Z,99565.33
2018-12-03T04:06:24.535Z,99574.22
2018-12-03T04:08:50.487Z,99582.98
2018-12-03T04:11:16.446Z,99597.80
2018-12-03T04:13:42.453Z,99602.73
2018-12-03T04:16:08.419Z,99597.14
2018-12-03T04:18:34.369Z,99597.45
2018-12-03T04:21:00.411Z,99594.64
2018-12-03T04:23:26.361Z,99583.58
2018-12-03T04:25:52.353Z,99596.97
2018-12-03T04:28:18.289Z,99598.09
2018-12-03T04:30:44.247Z,99602.71
2018-12-03T04:33:10.195Z,99599.06
2018-12-03T04:35:36.150Z,99612.76
2018-12-03T04:38:03.222Z,99627.11
2018-12-03T04:40:29.199Z,99623.31
2018-12-03T04:42:55.146Z,99615.73
2018-12-03T04:45:21.113Z,99613.91
2018-12-03T04:47:47.060Z,99631.06
2018-12-03T04:50:13.048Z,99626.77
2018-12-03T04:52:38.997Z,99622.50
2018-12-03T04:55:04.943Z,99616.57
2018-12-03T04:57:30.917Z,99613.93
2018-12-03T04:59:56.871Z,99617.73
2018-12-03T05:02:22.813Z,99622.34
2018-12-03T05:04:48.822Z,99631.88
2018-12-03T05:07:14.806Z,99633.52
2018-12-03T05:09:40.749Z,99633.04
2018-12-03T05:12:06.706Z,99625.43
2018-12-03T05:14:32.662Z,99628.58
2018-12-03T05:16:58.615Z,99624.11
2018-12-03T05:19:24.637Z,99622.48
2018-12-03T05:21:50.594Z,99624.11
2018-12-03T05:24:16.549Z,99620.67
2018-12-03T05:26:42.515Z,99626.77
2018-12-03T05:29:08.487Z,99624.47
2018-12-03T05:31:34.521Z,99622.81
2018-12-03T05:34:00.468Z,99631.88
2018-12-03T05:36:26.415Z,99622.81
2018-12-03T05:38:52.366Z,99626.96
2018-12-03T05:41:18.312Z,99630.11
2018-12-03T05:43:44.265Z,99617.58
2018-12-03T05:46:10.218Z,99622.04
2018-12-03T05:48:36.177Z,99619.41
2018-12-03T05:51:02.144Z,99633.72
2018-12-03T05:53:28.091Z,99628.95
2018-12-03T05:55:54.051Z,99633.92
2018-12-03T05:58:20.030Z,99637.68
2018-12-03T06:00:46.000Z,99638.85
2018-12-03T06:03:11.966Z,99633.58
2018-12-03T06:05:37.935Z,99636.41
2018-12-03T06:08:03.895Z,99638.54
2018-12-03T06:10:29.874Z,99635.25
2018-12-03T06:12:55.848Z,99631.29
2018-12-03T06:15:21.866Z,99640.02
2018-12-03T06:17:47.834Z,99644.32
2018-12-03T06:20:13.777Z,99646.95
2018-12-03T06:22:39.729Z,99642.66
2018-12-03T06:25:05.734Z,99640.84
2018-12-03T06:27:31.687Z,99642.01
2018-12-03T06:29:57.714Z,99642.01
2018-12-03T06:32:23.718Z,99645.96
2018-12-03T06:34:49.700Z,99648.95
2018-12-03T06:37:15.649Z,99651.39
2018-12-03T06:39:41.613Z,99643.67
2018-12-03T06:42:07.569Z,99649.26
2018-12-03T06:44:33.579Z,99647.44
2018-12-03T06:46:59.557Z,99644.80
2018-12-03T06:49:25.613Z,99640.69
2018-12-03T06:51:51.558Z,99636.56
2018-12-03T06:54:17.528Z,99647.12
2018-12-03T06:56:43.497Z,99647.62
2018-12-03T06:59:09.525Z,99645.45
2018-12-03T07:01:35.650Z,99645.96
2018-12-03T07:04:01.610Z,99651.23
2018-12-03T07:06:27.578Z,99649.42
2018-12-03T07:08:53.560Z,99655.04
2018-12-03T07:11:19.627Z,99661.29
2018-12-03T07:13:45.579Z,99653.38
2018-12-03T07:16:11.551Z,99653.88
2018-12-03T07:18:37.489Z,99651.08
2018-12-03T07:21:03.453Z,99650.27
2018-12-03T07:23:29.453Z,99647.44
2018-12-03T07:25:55.394Z,99649.92
2018-12-03T07:28:21.337Z,99656.67
2018-12-03T07:30:47.398Z,99662.28
2018-12-03T07:33:13.651Z,99670.20
2018-12-03T07:35:39.614Z,99670.35
2018-12-03T07:38:05.694Z,99677.26
2018-12-03T07:40:31.724Z,99689.28
2018-12-03T07:42:57.758Z,99687.31
2018-12-03T07:45:23.786Z,99688.78
2018-12-03T07:47:49.819Z,99680.24
2018-12-03T07:50:15.837Z,99685.52
2018-12-03T07:52:41.901Z,99685.17
2018-12-03T07:55:07.846Z,99685.38
2018-12-03T07:57:33.797Z,99686.50
2018-12-03T08:00:00.002Z,99687.81
2018-12-03T08:02:25.954Z,99681.72
2018-12-03T08:04:51.910Z,99685.52
2018-12-03T08:07:17.857Z,99685.52
2018-12-03T08:09:43.822Z,99676.59
2018-12-03T08:12:09.890Z,99679.23
2018-12-03T08:14:35.836Z,99686.14
2018-12-03T08:17:01.806Z,99692.73
2018-12-03T08:19:27.755Z,99691.77
2018-12-03T08:21:53.746Z,99694.91
2018-12-03T08:24:19.685Z,99693.59
2018-12-03T08:26:45.630Z,99694.25
2018-12-03T08:29:11.690Z,99691.46
2018-12-03T08:31:37.658Z,99692.78
2018-12-03T08:34:03.628Z,99693.59
2018-12-03T08:36:29.581Z,99698.21
2018-12-03T08:38:55.550Z,99700.66
2018-12-03T08:41:21.497Z,99696.39
2018-12-03T08:43:47.469Z,99700.19
2018-12-03T08:46:13.417Z,99695.72
2018-12-03T08:48:39.417Z,99691.77
2018-12-03T08:51:05.364Z,99693.24
2018-12-03T08:53:31.471Z,99684.82
2018-12-03T08:55:57.511Z,99692.58
2018-12-03T08:58:23.532Z,99699.48
2018-12-03T09:00:49.505Z,99701.97
2018-12-03T09:03:15.471Z,99704.44
2018-12-03T09:05:41.427Z,99709.22
2018-12-03T09:08:07.386Z,99711.35
2018-12-03T09:10:33.426Z,99703.94
2018-12-03T09:12:59.378Z,99706.89
2018-12-03T09:15:25.325Z,99710.84
2018-12-03T09:17:51.274Z,99702.63
2018-12-03T09:20:17.232Z,99702.93
2018-12-03T09:22:43.201Z,99698.97
2018-12-03T09:25:09.156Z,99704.59
2018-12-03T09:27:35.124Z,99710.38
2018-12-03T09:30:01.216Z,99707.55
2018-12-03T09:32:27.262Z,99710.54
2018-12-03T09:34:53.223Z,99713.99
2018-12-03T09:37:19.213Z,99715.81
2018-12-03T09:39:45.178Z,99717.80
2018-12-03T09:42:11.130Z,99726.53
2018-12-03T09:44:37.124Z,99726.69
2018-12-03T09:47:03.122Z,99721.75
2018-12-03T09:49:29.066Z,99716.47
2018-12-03T09:51:55.022Z,99714.48
2018-12-03T09:54:20.979Z,99716.78
2018-12-03T09:56:46.928Z,99718.92
2018-12-03T09:59:12.873Z,99728.00
2018-12-03T10:01:38.832Z,99727.34
2018-12-03T10:04:04.794Z,99722.41
2018-12-03T10:06:30.734Z,99714.48
2018-12-03T10:08:56.690Z,99717.44
2018-12-03T10:11:22.762Z,99716.63
2018-12-03T10:13:48.724Z,99713.98
2018-12-03T10:16:14.722Z,99710.53
2018-12-03T10:18:40.662Z,99701.60
2018-12-03T10:21:06.614Z,99699.47
2018-12-03T10:23:32.571Z,99699.13
2018-12-03T10:25:58.543Z,99699.62
2018-12-03T10:28:24.554Z,99694.34
2018-12-03T10:30:50.543Z,99693.03
2018-12-03T10:33:16.503Z,99692.67
2018-12-03T10:35:42.555Z,99695.50
2018-12-03T10:38:08.493Z,99688.91
2018-12-03T10:40:34.473Z,99688.09
2018-12-03T10:43:00.425Z,99690.54
2018-12-03T10:45:26.445Z,99693.02
2018-12-03T10:47:52.401Z,99681.14
2018-12-03T10:50:22.178Z,99678.16
2018-12-03T10:52:44.374Z,99686.92
2018-12-03T10:55:10.325Z,99682.96
2018-12-03T10:57:36.306Z,99685.09
2018-12-03T11:00:02.374Z,99684.75
2018-12-03T11:02:28.366Z,99684.75
2018-12-03T11:04:54.313Z,99680.80
2018-12-03T11:07:20.311Z,99677.69
2018-12-03T11:09:46.268Z,99681.14
2018-12-03T11:12:12.260Z,99680.33
2018-12-03T11:14:38.234Z,99672.20
2018-12-03T11:17:04.191Z,99658.53
2018-12-03T11:19:30.146Z,99657.69
2018-12-03T11:21:56.117Z,99645.34
2018-12-03T11:24:22.088Z,99650.62
2018-12-03T11:26:48.035Z,99650.28
2018-12-03T11:29:14.059Z,99643.52
2018-12-03T11:31:40.030Z,99643.02
2018-12-03T11:34:05.989Z,99639.87
2018-12-03T11:36:31.951Z,99636.25
2018-12-03T11:38:57.890Z,99633.11
2018-12-03T11:41:23.842Z,99629.45
2018-12-03T11:43:49.798Z,99620.72
2018-12-03T11:46:15.863Z,99619.71
2018-12-03T11:48:41.886Z,99620.87
2018-12-03T11:51:07.867Z,99614.13
2018-12-03T11:53:33.809Z,99609.80
2018-12-03T11:55:59.783Z,99605.53
2018-12-03T11:58:25.745Z,99606.85
2018-12-03T12:00:51.705Z,99601.06
2018-12-03T12:03:17.678Z,99602.39
2018-12-03T12:05:43.678Z,99598.59
2018-12-03T12:08:09.659Z,99592.84
2018-12-03T12:10:35.606Z,99591.02
2018-12-03T12:13:01.553Z,99579.95
2018-12-03T12:15:27.534Z,99586.86
2018-12-03T12:17:53.504Z,99587.05
2018-12-03T12:20:19.463Z,99586.41
2018-12-03T12:22:45.660Z,99590.87
2018-12-03T12:25:11.738Z,99586.91
2018-12-03T12:27:37.705Z,99589.35
2018-12-03T12:30:03.692Z,99581.44
2018-12-03T12:32:29.949Z,99584.92
2018-12-03T12:34:55.919Z,99577.48
2018-12-03T12:37:21.867Z,99568.58
2018-12-03T12:39:47.864Z,99564.92
2018-12-03T12:42:13.859Z,99555.69
2018-12-03T12:44:39.849Z,99562.28
2018-12-03T12:47:05.811Z,99558.83
2018-12-03T12:49:31.802Z,99568.74
2018-12-03T12:51:57.766Z,99566.61
2018-12-03T12:54:23.742Z,99562.95
2018-12-03T12:56:49.730Z,99536.56
2018-12-03T12:59:15.693Z,99532.94
2018-12-03T13:01:41.659Z,99524.69
2018-12-03T13:04:07.674Z,99533.61
2018-12-03T13:06:33.639Z,99531.79
2018-12-03T13:08:59.589Z,99525.70
2018-12-03T13:11:25.622Z,99522.75
2018-12-03T13:13:51.573Z,99510.03
2018-12-03T13:16:17.598Z,99514.33
2018-12-03T13:18:44.395Z,99517.78
2018-12-03T13:21:10.361Z,99519.09
2018-12-03T13:23:36.354Z,99522.24
2018-12-03T13:26:02.317Z,99530.16
2018-12-03T13:28:28.287Z,99526.70
2018-12-03T13:30:54.230Z,99529.34
2018-12-03T13:33:20.201Z,99530.67
2018-12-03T13:35:46.230Z,99529.82
2018-12-03T13:38:12.191Z,99532.97
2018-12-03T13:40:38.191Z,99518.45
2018-12-03T13:43:04.143Z,99516.31
2018-12-03T13:45:30.101Z,99512.66
2018-12-03T13:47:56.060Z,99510.36
2018-12-03T13:50:22.043Z,99505.25
2018-12-03T13:52:47.995Z,99499.97
2018-12-03T13:55:13.943Z,99503.42
2018-12-03T13:57:39.890Z,99505.25
2018-12-03T14:00:05.921Z,99507.58
2018-12-03T14:02:31.889Z,99506.27
2018-12-03T14:04:57.874Z,99501.30
2018-12-03T14:07:23.840Z,99502.30
2018-12-03T14:09:49.789Z,99500.31
2018-12-03T14:12:15.846Z,99499.97
2018-12-03T14:14:41.801Z,99504.58
2018-12-03T14:17:07.962Z,99501.30
2018-12-03T14:19:33.991Z,99491.55
2018-12-03T14:21:59.968Z,99486.47
2018-12-03T14:24:25.927Z,99473.08
2018-12-03T14:26:51.885Z,99473.58
2018-12-03T14:29:17.857Z,99471.45
2018-12-03T14:31:43.826Z,99480.52
2018-12-03T14:34:09.833Z,99487.11
2018-12-03T14:36:35.805Z,99479.81
2018-12-03T14:39:01.760Z,99483.16
2018-12-03T14:41:27.721Z,99483.16
2018-12-03T14:43:53.700Z,99479.00
2018-12-03T14:46:19.674Z,99490.23
2018-12-03T14:48:45.691Z,99491.89
2018-12-03T14:51:11.657Z,99495.51
2018-12-03T14:53:37.634Z,99501.44
2018-12-03T14:56:03.587Z,99507.36
2018-12-03T14:58:29.572Z,99502.39
2018-12-03T15:00:55.615Z,99502.25
2018-12-03T15:03:21.655Z,99499.30
2018-12-03T15:05:47.673Z,99500.77
2018-12-03T15:08:13.702Z,99499.97
2018-12-03T15:10:39.733Z,99505.25
2018-12-03T15:13:05.713Z,99503.77
2018-12-03T15:15:31.694Z,99502.45
2018-12-03T15:17:57.649Z,99503.56
2018-12-03T15:20:23.864Z,99508.03
2018-12-03T15:22:49.811Z,99508.84
2018-12-03T15:25:15.773Z,99500.77
2018-12-03T15:27:41.743Z,99501.77
2018-12-03T15:30:07.813Z,99508.38
2018-12-03T15:32:33.767Z,99500.11
2018-12-03T15:34:59.733Z,99504.41
2018-12-03T15:37:25.706Z,99507.86
2018-12-03T15:39:51.692Z,99513.45
2018-12-03T15:42:17.652Z,99514.27
2018-12-03T15:44:43.614Z,99512.64
2018-12-03T15:47:09.674Z,99511.32
2018-12-03T15:49:35.634Z,99509.49
2018-12-03T15:52:01.726Z,99505.22
2018-12-03T15:54:27.679Z,99502.25
2018-12-03T15:56:53.626Z,99501.27
2018-12-03T15:59:19.591Z,99503.56
2018-12-03T16:01:45.546Z,99500.92
2018-12-03T16:04:11.553Z,99500.92
2018-12-03T16:06:37.507Z,99496.97
2018-12-03T16:09:03.485Z,99499.44
2018-12-03T16:11:29.474Z,99501.94
2018-12-03T16:13:55.455Z,99509.86
2018-12-03T16:16:21.419Z,99495.34
2018-12-03T16:18:47.407Z,99496.97
2018-12-03T16:21:13.350Z,99492.53
2018-12-03T16:23:39.332Z,99494.66
2018-12-03T16:26:05.297Z,99488.06
2018-12-03T16:28:31.260Z,99486.23
2018-12-03T16:30:57.276Z,99481.97
2018-12-03T16:33:23.238Z,99493.34
2018-12-03T16:35:49.234Z,99489.89
2018-12-03T16:38:15.198Z,99498.94
2018-12-03T16:40:41.174Z,99495.65
2018-12-03T16:43:07.160Z,99506.55
2018-12-03T16:45:33.138Z,99494.66
2018-12-03T16:47:59.183Z,99506.55
2018-12-03T16:50:25.154Z,99506.04
2018-12-03T16:52:51.098Z,99514.77
2018-12-03T16:55:17.065Z,99515.14
2018-12-03T16:57:43.040Z,99518.09
2018-12-03T17:00:09.121Z,99514.13
2018-12-03T17:02:35.133Z,99515.95
2018-12-03T17:05:01.160Z,99518.91
2018-12-03T17:07:27.204Z,99521.03
2018-12-03T17:09:53.161Z,99522.19
2018-12-03T17:12:19.162Z,99527.47
2018-12-03T17:14:45.114Z,99519.41
2018-12-03T17:17:11.053Z,99509.86
2018-12-03T17:19:37.050Z,99512.95
2018-12-03T17:22:03.058Z,99513.45
2018-12-03T17:24:29.098Z,99512.64
2018-12-03T17:26:55.118Z,99508.17
2018-12-03T17:29:21.091Z,99501.57
2018-12-03T17:31:47.090Z,99499.44
2018-12-03T17:34:13.097Z,99498.94
2018-12-03T17:36:39.057Z,99504.21
2018-12-03T17:39:05.040Z,99497.61
2018-12-03T17:41:31.003Z,99500.77
2018-12-03T17:43:56.965Z,99508.68
2018-12-03T17:46:22.934Z,99505.53
2018-12-03T17:48:48.895Z,99509.86
2018-12-03T17:51:14.862Z,99508.17
2018-12-03T17:53:40.826Z,99508.98
2018-12-03T17:56:07.874Z,99505.91
2018-12-03T17:58:33.840Z,99515.95
2018-12-03T18:00:59.823Z,99507.22
2018-12-03T18:03:25.854Z,99514.47
2018-12-03T18:05:51.867Z,99524.02
2018-12-03T18:08:17.833Z,99520.05
2018-12-03T18:10:44.001Z,99525.02
2018-12-03T18:13:09.958Z,99524.20
2018-12-03T18:15:35.898Z,99525.84
2018-12-03T18:18:01.896Z,99529.29
2018-12-03T18:20:27.841Z,99534.57
2018-12-03T18:22:53.900Z,99542.18
2018-12-03T18:25:19.875Z,99544.48
2018-12-03T18:27:46.025Z,99542.69
2018-12-03T18:30:11.996Z,99544.31
2018-12-03T18:32:37.984Z,99547.62
2018-12-03T18:35:03.969Z,99544.82
2018-12-03T18:37:29.973Z,99551.73
2018-12-03T18:39:55.941Z,99556.70
2018-12-03T18:42:21.925Z,99557.52
2018-12-03T18:44:47.904Z,99567.26
2018-12-03T18:47:13.875Z,99560.66
2018-12-03T18:49:39.827Z,99561.98
2018-12-03T18:52:05.827Z,99557.67
2018-12-03T18:54:31.822Z,99563.30
2018-12-03T18:56:57.784Z,99570.88
2018-12-03T18:59:23.742Z,99564.78
2018-12-03T19:01:49.709Z,99573.35
2018-12-03T19:04:15.782Z,99572.54
2018-12-03T19:06:41.816Z,99577.48
2018-12-03T19:09:07.857Z,99584.08
2018-12-03T19:11:33.863Z,99585.39
2018-12-03T19:13:59.897Z,99585.39
2018-12-03T19:16:25.888Z,99585.23
2018-12-03T19:18:51.819Z,99590.67
2018-12-03T19:21:17.829Z,99595.78
2018-12-03T19:23:43.849Z,99594.97
2018-12-03T19:26:09.815Z,99597.61
2018-12-03T19:28:35.775Z,99607.67
2018-12-03T19:31:01.743Z,99611.13
2018-12-03T19:33:27.730Z,99612.44
2018-12-03T19:35:53.720Z,99619.04
2018-12-03T19:38:19.715Z,99621.03
2018-12-03T19:40:45.716Z,99624.17
2018-12-03T19:43:11.674Z,99625.84
2018-12-03T19:45:37.625Z,99615.44
2018-12-03T19:48:03.606Z,99620.22
2018-12-03T19:50:29.601Z,99611.98
2018-12-03T19:52:55.602Z,99610.67
2018-12-03T19:55:21.574Z,99632.09
2018-12-03T19:57:47.566Z,99629.45
2018-12-03T20:00:13.519Z,99639.20
2018-12-03T20:02:39.494Z,99637.38
2018-12-03T20:05:05.450Z,99652.55
2018-12-03T20:07:31.436Z,99647.42
2018-12-03T20:09:57.426Z,99649.76
2018-12-03T20:12:23.405Z,99653.55
2018-12-03T20:14:49.387Z,99648.58
2018-12-03T20:17:15.370Z,99650.91
2018-12-03T20:19:41.336Z,99652.70
2018-12-03T20:22:07.300Z,99656.05
2018-12-03T20:24:33.300Z,99667.42
2018-12-03T20:26:59.326Z,99664.94
2018-12-03T20:29:25.306Z,99677.16
2018-12-03T20:31:51.300Z,99682.10
2018-12-03T20:34:17.262Z,99684.74
2018-12-03T20:36:43.290Z,99692.85
2018-12-03T20:39:09.266Z,99695.16
2018-12-03T20:41:35.232Z,99700.77
2018-12-03T20:44:01.211Z,99708.34
2018-12-03T20:46:27.272Z,99702.56
2018-12-03T20:48:53.248Z,99709.81
2018-12-03T20:51:19.219Z,99716.42
2018-12-03T20:53:45.227Z,99719.56
2018-12-03T20:56:11.201Z,99725.66
2018-12-03T20:58:37.221Z,99733.07
2018-12-03T21:01:03.171Z,99740.17
2018-12-03T21:03:29.141Z,99743.00
2018-12-03T21:05:55.105Z,99749.41
2018-12-03T21:08:21.099Z,99758.65
2018-12-03T21:10:47.128Z,99758.65
2018-12-03T21:13:13.182Z,99763.93
2018-12-03T21:15:39.238Z,99767.89
2018-12-03T21:18:05.196Z,99777.47
2018-12-03T21:20:31.194Z,99772.86
2018-12-03T21:22:57.172Z,99778.95
2018-12-03T21:25:50.433Z,99792.97
2018-12-03T21:28:16.389Z,99786.22
2018-12-03T21:30:42.361Z,99796.92
2018-12-03T21:33:08.404Z,99805.51
2018-12-03T21:35:34.370Z,99800.58
2018-12-03T21:38:00.327Z,99801.39
2018-12-03T21:40:26.306Z,99813.11
2018-12-03T21:42:52.369Z,99807.98
2018-12-03T21:45:18.317Z,99809.81
2018-12-03T21:47:44.398Z,99815.91
2018-12-03T21:50:10.437Z,99819.05
2018-12-03T21:52:36.444Z,99817.89
2018-12-03T21:55:02.474Z,99818.39
2018-12-03T21:57:28.617Z,99819.37
2018-12-03T21:59:56.966Z,99825.50
2018-12-03T22:02:24.118Z,99829.11
2018-12-03T22:04:50.290Z,99827.79
2018-12-03T22:07:16.258Z,99832.76
2018-12-03T22:09:42.226Z,99839.36
2018-12-03T22:12:08.191Z,99839.86
2018-12-03T22:14:34.158Z,99840.33
2018-12-03T22:17:00.118Z,99837.88
2018-12-03T22:19:26.134Z,99849.25
2018-12-03T22:21:52.097Z,99861.13
2018-12-03T22:24:18.050Z,99865.91
2018-12-03T22:26:44.060Z,99876.66
2018-12-03T22:29:10.051Z,99882.25
2018-12-03T22:31:36.002Z,99895.95
2018-12-03T22:34:01.967Z,99895.45
2018-12-03T22:36:27.948Z,99903.05
2018-12-03T22:38:53.893Z,99902.70
2018-12-03T22:41:19.884Z,99905.69
2018-12-03T22:43:45.845Z,99910.97
2018-12-03T22:46:11.855Z,99913.45
2018-12-03T22:48:37.844Z,99923.16
2018-12-03T22:51:03.802Z,99925.33
2018-12-03T22:53:30.784Z,99924.31
2018-12-03T22:55:56.803Z,99926.80
2018-12-03T22:58:22.836Z,99926.80
2018-12-03T23:00:48.799Z,99931.58
2018-12-03T23:03:15.379Z,99939.33
2018-12-03T23:05:41.947Z,99945.77
2018-12-03T23:08:07.941Z,99958.47
2018-12-03T23:10:33.906Z,99966.55
2018-12-03T23:12:59.891Z,99985.17
2018-12-03T23:15:25.931Z,99985.17
2018-12-03T23:17:51.993Z,99989.98
2018-12-03T23:20:17.965Z,100000.86
2018-12-03T23:22:43.960Z,100002.19
2018-12-03T23:25:09.941Z,100012.73
2018-12-03T23:27:35.994Z,100017.70
2018-12-03T23:30:01.958Z,100028.58
2018-12-03T23:32:27.936Z,100024.94
2018-12-03T23:34:53.962Z,100037.66
2018-12-03T23:37:19.987Z,100042.59
2018-12-03T23:39:45.949Z,100048.03
2018-12-03T23:42:11.970Z,100050.36
2018-12-03T23:44:37.978Z,100047.88
2018-12-03T23:47:04.025Z,100055.64
2018-12-03T23:49:30.067Z,100068.98
2018-12-03T23:51:56.018Z,100066.53
2018-12-03T23:54:22.007Z,100073.59
2018-12-03T23:56:48.000Z,100077.56
2018-12-03T23:59:14.042Z,100104.13
